Time;durP1;ratioP1;P1;durP2;ratioP2;P2;SDS_P1;SDS_P2;PMS_P1;PMS_P2;Temp;Humidity;BMP_temperature;BMP_pressure;BME280_temperature;BME280_humidity;BME280_pressure;Samples;Min_cycle;Max_cycle;Signal;HPM_P1;HPM_P2
2024/01/22 00:00:19;;;;;;;16.30;10.55;;;2.80;77.30;;;;;;5004315;28;20237;-77
2024/01/22 00:02:48;;;;;;;29.85;11.25;;;2.80;77.40;;;;;;5009226;28;20193;-78
2024/01/22 00:05:16;;;;;;;16.00;8.48;;;2.80;77.40;;;;;;5004003;28;20723;-78
2024/01/22 00:07:44;;;;;;;17.67;7.88;;;2.80;77.40;;;;;;5004497;28;20226;-78
2024/01/22 00:10:14;;;;;;;13.20;7.43;;;2.80;77.50;;;;;;5004851;28;20209;-77
2024/01/22 00:12:42;;;;;;;12.23;7.97;;;2.90;77.50;;;;;;5005223;28;20201;-77
2024/01/22 00:15:11;;;;;;;14.00;7.22;;;2.90;77.60;;;;;;5006081;28;20573;-77
2024/01/22 00:17:40;;;;;;;9.75;7.07;;;3.00;77.70;;;;;;5005444;28;20612;-77
2024/01/22 00:20:09;;;;;;;14.30;7.60;;;3.00;77.70;;;;;;5022561;28;20640;-77
2024/01/22 00:22:37;;;;;;;13.43;7.97;;;3.10;77.60;;;;;;5021229;28;20239;-77
2024/01/22 00:25:06;;;;;;;12.02;7.55;;;3.10;77.60;;;;;;5008291;28;20229;-77
2024/01/22 00:27:34;;;;;;;14.50;7.95;;;3.20;77.60;;;;;;5003689;28;20215;-78
2024/01/22 00:30:03;;;;;;;14.98;6.55;;;3.20;77.60;;;;;;5006562;28;20229;-78
2024/01/22 00:32:31;;;;;;;13.00;6.68;;;3.20;77.70;;;;;;5008331;28;20757;-78
2024/01/22 00:35:04;;;;;;;14.52;8.10;;;3.30;77.70;;;;;;5006399;28;20206;-78
2024/01/22 00:37:32;;;;;;;13.10;7.00;;;3.30;77.70;;;;;;5003643;28;20299;-76
2024/01/22 00:40:01;;;;;;;11.70;8.18;;;3.30;77.70;;;;;;5002687;28;20709;-76
2024/01/22 00:42:29;;;;;;;11.18;6.22;;;3.40;77.60;;;;;;5008491;28;20328;-77
2024/01/22 00:44:57;;;;;;;11.45;6.65;;;3.40;77.60;;;;;;5003611;28;20232;-77
2024/01/22 00:47:25;;;;;;;10.23;6.20;;;3.50;77.70;;;;;;5005830;28;20233;-77
2024/01/22 00:49:53;;;;;;;11.70;6.60;;;3.50;77.50;;;;;;5004912;28;20210;-77
2024/01/22 00:52:23;;;;;;;9.57;6.25;;;3.60;77.50;;;;;;5006051;28;20205;-77
2024/01/22 00:54:51;;;;;;;10.25;6.38;;;3.70;77.40;;;;;;5004764;28;20205;-77
2024/01/22 00:57:21;;;;;;;10.27;6.53;;;3.70;77.20;;;;;;5005106;28;20285;-77
2024/01/22 00:59:50;;;;;;;14.40;7.93;;;3.70;77.20;;;;;;5004977;28;20266;-77
2024/01/22 01:02:18;;;;;;;12.02;6.55;;;3.70;77.20;;;;;;5004941;28;20311;-77
2024/01/22 01:04:45;;;;;;;13.05;7.05;;;3.70;77.00;;;;;;5002076;28;20655;-77
2024/01/22 01:07:13;;;;;;;10.75;5.75;;;3.80;77.00;;;;;;5002531;28;20210;-78
2024/01/22 01:09:43;;;;;;;14.48;6.65;;;3.70;76.80;;;;;;5003750;28;20608;-78
2024/01/22 01:12:11;;;;;;;12.18;6.38;;;3.70;76.80;;;;;;5005203;28;20288;-78
2024/01/22 01:14:39;;;;;;;10.23;6.25;;;3.80;76.80;;;;;;5023155;28;20208;-77
2024/01/22 01:17:07;;;;;;;11.15;6.72;;;3.70;76.80;;;;;;5004865;28;20210;-76
2024/01/22 01:19:36;;;;;;;12.55;6.45;;;3.70;76.70;;;;;;5005767;28;20202;-78
2024/01/22 01:22:04;;;;;;;14.73;7.10;;;3.70;76.70;;;;;;5002607;28;20213;-78
2024/01/22 01:24:32;;;;;;;11.70;6.70;;;3.70;76.70;;;;;;5003991;28;20226;-77
2024/01/22 01:27:01;;;;;;;19.27;10.85;;;3.70;76.70;;;;;;5000944;28;20217;-77
2024/01/22 01:29:29;;;;;;;15.55;8.98;;;3.70;76.70;;;;;;5000562;28;20286;-77
2024/01/22 01:31:57;;;;;;;14.52;8.73;;;3.70;76.50;;;;;;5001367;28;20240;-77
2024/01/22 01:34:25;;;;;;;20.15;8.45;;;3.70;76.50;;;;;;5004585;28;20213;-77
2024/01/22 01:36:54;;;;;;;29.50;13.98;;;3.70;76.50;;;;;;5005086;28;20209;-77
2024/01/22 01:39:22;;;;;;;18.30;8.98;;;3.70;76.50;;;;;;5000921;28;20667;-77
2024/01/22 01:41:50;;;;;;;11.60;6.68;;;3.70;76.50;;;;;;5002469;28;20534;-77
2024/01/22 01:44:19;;;;;;;10.75;5.70;;;3.70;76.60;;;;;;5005470;28;20205;-77
2024/01/22 01:46:47;;;;;;;11.55;6.63;;;3.70;76.50;;;;;;4999276;28;20285;-78
2024/01/22 01:49:15;;;;;;;12.20;6.70;;;3.70;76.40;;;;;;5002819;28;20279;-78
2024/01/22 01:51:44;;;;;;;16.17;8.05;;;3.60;76.40;;;;;;5006749;28;20220;-78
2024/01/22 01:54:12;;;;;;;16.45;6.93;;;3.60;76.50;;;;;;5005807;28;20657;-78
2024/01/22 01:56:40;;;;;;;10.43;6.38;;;3.60;76.50;;;;;;5002383;28;20209;-79
2024/01/22 01:59:09;;;;;;;10.95;5.80;;;3.60;76.50;;;;;;5002485;28;20237;-78
2024/01/22 02:01:38;;;;;;;10.63;6.60;;;3.70;76.50;;;;;;5020703;28;20239;-78
2024/01/22 02:04:07;;;;;;;11.23;5.60;;;3.70;76.50;;;;;;5002476;28;20216;-77
2024/01/22 02:06:35;;;;;;;10.65;6.30;;;3.70;76.40;;;;;;5005317;28;20228;-80
2024/01/22 02:09:03;;;;;;;10.25;6.28;;;3.70;76.50;;;;;;4998630;28;20343;-78
2024/01/22 02:11:31;;;;;;;9.23;5.50;;;3.70;76.40;;;;;;5006507;28;20206;-77
2024/01/22 02:14:00;;;;;;;12.65;7.47;;;3.70;76.30;;;;;;5002883;28;20643;-77
2024/01/22 02:16:28;;;;;;;18.15;7.43;;;3.70;76.30;;;;;;5002464;28;20296;-76
2024/01/22 02:18:57;;;;;;;11.75;6.47;;;3.70;76.30;;;;;;5016973;28;20209;-78
2024/01/22 02:21:26;;;;;;;14.73;8.60;;;3.70;76.40;;;;;;5015537;28;20226;-77
2024/01/22 02:23:55;;;;;;;21.05;11.30;;;3.70;76.40;;;;;;5005876;28;20209;-78
2024/01/22 02:26:23;;;;;;;21.45;10.35;;;3.70;76.20;;;;;;5003604;28;20219;-77
2024/01/22 02:28:51;;;;;;;16.20;8.15;;;3.70;76.20;;;;;;4999702;28;20314;-78
2024/01/22 02:31:19;;;;;;;17.67;9.55;;;3.70;76.20;;;;;;5007483;28;20244;-78
2024/01/22 02:33:47;;;;;;;9.50;5.35;;;3.70;76.30;;;;;;5002723;28;20214;-77
2024/01/22 02:36:16;;;;;;;8.75;4.57;;;3.70;76.30;;;;;;5017084;28;20208;-77
2024/01/22 02:38:45;;;;;;;7.25;4.20;;;3.70;76.40;;;;;;5005872;28;20655;-77
2024/01/22 02:41:14;;;;;;;7.45;4.45;;;3.70;76.40;;;;;;5002299;28;20289;-77
2024/01/22 02:43:42;;;;;;;11.50;5.07;;;3.70;76.40;;;;;;4997112;28;20214;-77
2024/01/22 02:46:11;;;;;;;11.45;3.92;;;3.70;76.20;;;;;;4998742;28;20505;-77
2024/01/22 02:48:39;;;;;;;8.32;4.50;;;3.80;76.20;;;;;;5008355;28;20226;-76
2024/01/22 02:51:08;;;;;;;8.82;5.10;;;3.70;76.20;;;;;;5001852;28;20209;-76
2024/01/22 02:53:38;;;;;;;11.00;4.90;;;3.70;76.10;;;;;;5004959;28;20208;-75
2024/01/22 02:56:07;;;;;;;10.70;5.25;;;3.70;76.20;;;;;;5003206;28;20229;-77
2024/01/22 02:58:36;;;;;;;17.90;5.40;;;3.70;76.20;;;;;;5009848;28;20217;-76
2024/01/22 03:01:05;;;;;;;12.95;6.78;;;3.80;76.20;;;;;;5004936;28;20226;-76
2024/01/22 03:03:33;;;;;;;10.60;4.75;;;3.80;76.10;;;;;;5004748;28;20206;-77
2024/01/22 03:06:01;;;;;;;11.10;5.90;;;3.70;76.20;;;;;;5004385;28;20690;-76
2024/01/22 03:08:29;;;;;;;15.00;6.18;;;3.80;76.50;;;;;;5003362;28;20221;-76
2024/01/22 03:10:57;;;;;;;8.88;4.10;;;3.80;76.50;;;;;;5005193;28;20210;-76
2024/01/22 03:13:26;;;;;;;8.23;3.63;;;3.90;76.50;;;;;;4996768;28;20209;-76
2024/01/22 03:15:55;;;;;;;9.98;3.63;;;3.90;76.50;;;;;;4997653;28;20206;-76
2024/01/22 03:18:23;;;;;;;7.93;3.50;;;4.00;76.30;;;;;;5002933;28;20201;-77
2024/01/22 03:20:51;;;;;;;16.55;6.95;;;4.00;76.20;;;;;;5005101;28;20202;-77
2024/01/22 03:23:19;;;;;;;9.80;4.18;;;4.00;76.30;;;;;;5003693;28;20210;-77
2024/01/22 03:25:47;;;;;;;9.15;3.80;;;4.00;76.30;;;;;;5005071;28;20208;-77
2024/01/22 03:28:15;;;;;;;6.85;3.50;;;4.00;76.40;;;;;;5020484;28;20590;-77
2024/01/22 03:30:43;;;;;;;6.75;3.40;;;4.10;76.50;;;;;;5000493;28;20234;-77
2024/01/22 03:33:13;;;;;;;8.80;3.67;;;4.10;76.50;;;;;;5000540;28;20632;-77
2024/01/22 03:35:41;;;;;;;6.95;3.25;;;4.10;76.40;;;;;;5004304;28;20218;-76
2024/01/22 03:38:09;;;;;;;12.07;3.47;;;4.20;76.50;;;;;;5006371;28;20209;-76
2024/01/22 03:40:37;;;;;;;6.00;3.40;;;4.20;76.40;;;;;;5000426;28;20284;-76
2024/01/22 03:43:05;;;;;;;10.38;3.40;;;4.20;76.40;;;;;;5006196;28;20523;-76
2024/01/22 03:45:33;;;;;;;10.48;3.75;;;4.20;76.40;;;;;;5006755;28;20229;-77
2024/01/22 03:48:01;;;;;;;8.00;3.47;;;4.20;76.30;;;;;;5001094;28;20874;-77
2024/01/22 03:50:31;;;;;;;7.93;3.50;;;4.20;76.50;;;;;;5001199;28;20206;-77
2024/01/22 03:52:59;;;;;;;9.85;3.70;;;4.30;76.50;;;;;;4999824;28;20228;-76
2024/01/22 03:55:27;;;;;;;5.90;3.38;;;4.30;76.40;;;;;;5006726;28;20527;-77
2024/01/22 03:57:55;;;;;;;7.28;3.15;;;4.30;76.40;;;;;;5002681;28;20210;-76
2024/01/22 04:00:23;;;;;;;5.38;2.80;;;4.30;76.30;;;;;;5000939;28;20201;-77
2024/01/22 04:02:51;;;;;;;7.65;3.78;;;4.30;76.30;;;;;;5005115;28;20209;-77
2024/01/22 04:05:19;;;;;;;6.35;3.60;;;4.30;76.30;;;;;;5005070;28;20206;-76
2024/01/22 04:07:48;;;;;;;5.90;3.15;;;4.30;76.20;;;;;;5004488;28;20289;-78
2024/01/22 04:10:16;;;;;;;6.07;3.20;;;4.30;76.20;;;;;;5020891;28;20230;-77
2024/01/22 04:12:44;;;;;;;8.10;3.10;;;4.20;76.10;;;;;;5007597;28;20266;-77
2024/01/22 04:15:13;;;;;;;10.43;4.45;;;4.20;76.20;;;;;;5007774;28;20198;-78
2024/01/22 04:17:42;;;;;;;8.25;3.40;;;4.20;76.30;;;;;;5000700;28;20210;-76
2024/01/22 04:20:13;;;;;;;6.93;3.60;;;4.20;76.40;;;;;;5004959;28;20814;-76
2024/01/22 04:22:41;;;;;;;7.30;3.22;;;4.20;76.40;;;;;;5005375;28;20212;-76
2024/01/22 04:25:11;;;;;;;6.75;3.22;;;4.20;76.40;;;;;;5001938;28;20210;-77
2024/01/22 04:27:39;;;;;;;6.03;2.80;;;4.20;76.40;;;;;;5005347;28;20224;-76
2024/01/22 04:30:08;;;;;;;12.10;2.97;;;4.10;76.50;;;;;;5003617;28;20309;-76
2024/01/22 04:32:36;;;;;;;8.82;3.20;;;4.20;76.60;;;;;;5000207;28;20226;-76
2024/01/22 04:35:05;;;;;;;6.97;3.03;;;4.20;76.60;;;;;;5002894;28;20210;-76
2024/01/22 04:37:33;;;;;;;5.45;2.83;;;4.20;76.60;;;;;;5001662;28;20235;-75
2024/01/22 04:40:14;;;;;;;8.65;3.38;;;4.20;76.60;;;;;;5003714;28;20208;-75
2024/01/22 04:42:43;;;;;;;6.45;3.38;;;4.20;76.70;;;;;;5004666;28;20300;-77
2024/01/22 04:45:14;;;;;;;7.32;3.42;;;4.20;76.80;;;;;;5002505;28;20612;-77
2024/01/22 04:47:42;;;;;;;10.00;2.88;;;4.20;76.80;;;;;;5000532;28;20213;-76
2024/01/22 04:50:11;;;;;;;6.15;2.90;;;4.20;76.80;;;;;;5000098;28;20682;-77
2024/01/22 04:52:38;;;;;;;7.22;3.30;;;4.20;76.90;;;;;;5015494;28;20198;-76
2024/01/22 04:55:07;;;;;;;8.15;3.30;;;4.30;76.90;;;;;;5002834;28;20292;-77
2024/01/22 04:57:48;;;;;;;8.00;3.30;;;4.30;76.90;;;;;;5011799;28;20594;-77
2024/01/22 05:00:17;;;;;;;9.25;3.30;;;4.30;76.90;;;;;;5005289;28;20206;-76
2024/01/22 05:02:46;;;;;;;8.13;2.97;;;4.30;77.00;;;;;;5005610;28;20210;-77
2024/01/22 05:05:15;;;;;;;5.32;2.40;;;4.30;77.00;;;;;;5002301;28;20205;-76
2024/01/22 05:07:44;;;;;;;6.30;3.03;;;4.30;77.00;;;;;;5005206;28;20287;-77
2024/01/22 05:10:13;;;;;;;6.07;2.85;;;4.40;77.00;;;;;;5011365;28;20234;-78
2024/01/22 05:12:41;;;;;;;5.57;2.80;;;4.30;77.00;;;;;;5006261;28;20210;-76
2024/01/22 05:15:12;;;;;;;5.70;2.90;;;4.30;77.00;;;;;;5002201;28;20309;-76
2024/01/22 05:17:41;;;;;;;8.52;3.90;;;4.30;77.00;;;;;;5002852;28;20228;-76
2024/01/22 05:20:11;;;;;;;6.68;3.75;;;4.30;77.20;;;;;;5004142;28;20206;-76
2024/01/22 05:22:39;;;;;;;6.13;3.25;;;4.40;77.30;;;;;;5003121;28;20223;-76
2024/01/22 05:25:08;;;;;;;7.38;3.38;;;4.40;77.30;;;;;;5001707;28;20220;-76
2024/01/22 05:27:37;;;;;;;6.18;2.78;;;4.40;77.30;;;;;;5021483;28;20221;-77
2024/01/22 05:30:06;;;;;;;7.15;3.00;;;4.40;77.30;;;;;;5005590;28;20737;-77
2024/01/22 05:32:36;;;;;;;8.30;3.15;;;4.40;77.50;;;;;;5004342;28;20234;-77
2024/01/22 05:35:05;;;;;;;6.00;2.80;;;4.50;77.50;;;;;;5005315;28;20202;-77
2024/01/22 05:37:33;;;;;;;7.82;2.90;;;4.50;77.40;;;;;;5021131;28;20221;-77
2024/01/22 05:40:01;;;;;;;4.55;2.38;;;4.50;77.50;;;;;;5003788;28;20276;-77
2024/01/22 05:42:30;;;;;;;6.03;2.72;;;4.50;77.50;;;;;;5008781;28;20216;-77
2024/01/22 05:44:58;;;;;;;6.68;2.70;;;4.50;77.50;;;;;;5007502;28;20267;-79
2024/01/22 05:47:26;;;;;;;6.38;2.63;;;4.60;77.60;;;;;;5022342;28;20201;-79
2024/01/22 05:49:56;;;;;;;6.38;2.40;;;4.60;77.60;;;;;;5010404;28;20214;-79
2024/01/22 05:52:24;;;;;;;5.50;2.80;;;4.60;77.60;;;;;;5008420;28;20545;-79
2024/01/22 05:54:52;;;;;;;8.40;2.92;;;4.60;77.60;;;;;;5007247;28;20205;-79
2024/01/22 05:57:21;;;;;;;6.32;2.38;;;4.60;77.60;;;;;;5018602;28;20233;-79
2024/01/22 05:59:49;;;;;;;5.40;2.60;;;4.60;77.60;;;;;;5006460;28;20260;-79
2024/01/22 06:02:18;;;;;;;5.32;2.40;;;4.60;77.70;;;;;;5007813;28;20301;-79
2024/01/22 06:04:45;;;;;;;5.55;2.75;;;4.60;77.80;;;;;;5007888;28;20612;-79
2024/01/22 06:07:15;;;;;;;5.70;2.72;;;4.60;77.80;;;;;;5012538;28;20198;-79
2024/01/22 06:09:43;;;;;;;5.40;2.50;;;4.60;77.80;;;;;;5005503;28;20222;-78
2024/01/22 06:12:19;;;;;;;5.60;2.40;;;4.60;77.70;;;;;;5006808;28;20205;-79
2024/01/22 06:14:49;;;;;;;7.05;2.35;;;4.60;77.90;;;;;;5002129;28;20208;-78
2024/01/22 06:17:17;;;;;;;6.85;2.58;;;4.60;77.90;;;;;;5013850;28;20228;-79
2024/01/22 06:19:45;;;;;;;6.43;2.45;;;4.60;77.80;;;;;;5011132;28;20312;-77
2024/01/22 06:22:15;;;;;;;6.30;2.70;;;4.50;77.90;;;;;;5007825;28;20209;-79
2024/01/22 06:24:44;;;;;;;6.50;3.03;;;4.60;78.00;;;;;;5010787;28;20210;-79
2024/01/22 06:27:13;;;;;;;6.95;2.83;;;4.60;77.90;;;;;;5008500;28;20288;-79
2024/01/22 06:29:42;;;;;;;9.93;3.33;;;4.60;77.90;;;;;;5000987;28;20249;-80
2024/01/22 06:32:10;;;;;;;5.10;2.92;;;4.60;78.00;;;;;;5006003;28;20229;-79
2024/01/22 06:34:38;;;;;;;6.18;3.00;;;4.60;78.00;;;;;;5005921;28;20593;-79
2024/01/22 06:37:07;;;;;;;8.43;2.83;;;4.60;78.00;;;;;;5002219;28;20213;-79
2024/01/22 06:39:36;;;;;;;6.38;2.90;;;4.60;78.00;;;;;;5008275;28;20202;-79
2024/01/22 06:42:04;;;;;;;6.72;2.90;;;4.60;78.00;;;;;;5008992;28;20538;-79
2024/01/22 06:44:32;;;;;;;5.43;2.80;;;4.70;78.10;;;;;;5005799;28;20231;-79
2024/01/22 06:47:00;;;;;;;6.07;2.90;;;4.70;78.10;;;;;;5002922;28;20205;-79
2024/01/22 06:49:31;;;;;;;11.70;2.60;;;4.70;78.10;;;;;;5012164;28;20197;-79
2024/01/22 06:51:59;;;;;;;5.43;2.92;;;4.70;78.10;;;;;;5010979;28;20259;-79
2024/01/22 06:54:27;;;;;;;7.05;2.70;;;4.70;78.10;;;;;;5018412;28;20289;-79
2024/01/22 06:56:56;;;;;;;6.28;2.63;;;4.70;78.20;;;;;;5006383;28;20205;-79
2024/01/22 06:59:26;;;;;;;5.40;2.60;;;4.70;78.20;;;;;;5003939;28;20202;-79
2024/01/22 07:01:56;;;;;;;6.57;2.80;;;4.80;78.20;;;;;;5002544;28;20244;-79
2024/01/22 07:04:24;;;;;;;6.55;2.88;;;4.80;78.30;;;;;;4987651;28;20203;-78
2024/01/22 07:06:54;;;;;;;5.28;2.58;;;4.80;78.40;;;;;;4983836;28;20253;-79
2024/01/22 07:09:24;;;;;;;5.55;2.60;;;4.80;78.50;;;;;;4985226;28;20230;-79
2024/01/22 07:11:52;;;;;;;10.50;2.70;;;4.80;78.50;;;;;;4983952;28;20226;-79
2024/01/22 07:14:21;;;;;;;6.18;2.88;;;4.80;78.50;;;;;;4998844;28;20203;-78
2024/01/22 07:16:52;;;;;;;5.68;2.70;;;4.90;78.50;;;;;;4985228;28;20213;-77
2024/01/22 07:19:24;;;;;;;8.88;3.05;;;4.90;78.50;;;;;;4988800;28;20202;-78
2024/01/22 07:21:57;;;;;;;6.93;3.17;;;4.90;78.30;;;;;;4987462;28;20252;-78
2024/01/22 07:24:26;;;;;;;5.55;2.50;;;4.90;78.50;;;;;;4986787;28;20206;-79
2024/01/22 07:26:54;;;;;;;5.47;2.80;;;4.90;78.30;;;;;;4985566;28;20277;-78
2024/01/22 07:29:27;;;;;;;5.95;2.67;;;4.90;78.60;;;;;;4986878;28;20214;-79
2024/01/22 07:31:55;;;;;;;7.68;2.53;;;5.00;78.70;;;;;;4983358;28;20663;-79
2024/01/22 07:34:23;;;;;;;5.43;2.92;;;5.00;78.70;;;;;;4986246;28;20221;-79
2024/01/22 07:36:53;;;;;;;5.72;2.50;;;5.00;78.60;;;;;;4986029;28;20198;-79
2024/01/22 07:39:21;;;;;;;5.50;2.50;;;5.10;78.60;;;;;;4988492;28;20198;-79
2024/01/22 07:41:49;;;;;;;5.78;3.10;;;5.10;78.70;;;;;;4988544;28;20206;-79
2024/01/22 07:44:17;;;;;;;5.50;2.72;;;5.20;78.70;;;;;;4984574;28;20199;-79
2024/01/22 07:46:50;;;;;;;6.38;2.90;;;5.20;78.60;;;;;;4989757;28;20199;-79
2024/01/22 07:49:20;;;;;;;6.50;2.50;;;5.30;78.50;;;;;;4983527;28;20262;-78
2024/01/22 07:51:49;;;;;;;7.07;2.72;;;5.30;78.50;;;;;;4988987;28;20218;-79
2024/01/22 07:54:17;;;;;;;5.25;2.55;;;5.30;78.40;;;;;;4987138;28;20202;-78
2024/01/22 07:56:45;;;;;;;5.32;2.40;;;5.30;78.30;;;;;;4984463;28;20265;-78
2024/01/22 07:59:13;;;;;;;4.45;2.30;;;5.30;78.30;;;;;;5004491;28;20198;-78
2024/01/22 08:01:42;;;;;;;5.97;2.90;;;5.30;78.40;;;;;;4982778;28;20242;-78
2024/01/22 08:04:12;;;;;;;5.88;2.45;;;5.30;78.30;;;;;;4983231;28;20213;-79
2024/01/22 08:06:41;;;;;;;9.25;2.80;;;5.30;78.20;;;;;;4984717;28;20210;-78
2024/01/22 08:09:11;;;;;;;7.07;2.58;;;5.30;78.10;;;;;;4982816;28;20203;-78
2024/01/22 08:11:41;;;;;;;5.63;2.45;;;5.30;78.10;;;;;;4988517;28;20896;-79
2024/01/22 08:14:09;;;;;;;8.00;2.33;;;5.30;78.10;;;;;;4988193;28;20284;-78
2024/01/22 08:16:37;;;;;;;6.40;2.55;;;5.30;78.10;;;;;;4992215;28;21521;-80
2024/01/22 08:19:05;;;;;;;5.22;2.50;;;5.30;78.10;;;;;;4987058;28;20554;-79
2024/01/22 08:21:34;;;;;;;6.13;2.45;;;5.30;78.10;;;;;;4985364;28;20194;-77
2024/01/22 08:24:03;;;;;;;5.30;2.20;;;5.40;78.10;;;;;;4984343;28;20233;-79
2024/01/22 08:26:31;;;;;;;5.25;2.60;;;5.40;78.00;;;;;;4989242;28;20218;-77
2024/01/22 08:29:01;;;;;;;5.53;2.38;;;5.40;78.00;;;;;;4984628;28;20277;-79
2024/01/22 08:31:29;;;;;;;5.30;2.60;;;5.30;78.00;;;;;;4986812;28;20311;-79
2024/01/22 08:33:57;;;;;;;5.47;2.85;;;5.30;78.00;;;;;;4987611;28;20248;-79
2024/01/22 08:36:26;;;;;;;6.88;2.30;;;5.40;77.90;;;;;;4987403;28;20210;-79
2024/01/22 08:38:55;;;;;;;5.43;2.17;;;5.30;78.00;;;;;;4992770;28;20550;-79
2024/01/22 08:41:26;;;;;;;5.05;2.50;;;5.30;78.10;;;;;;4987311;28;20203;-79
2024/01/22 08:43:55;;;;;;;5.40;2.40;;;5.30;78.10;;;;;;4991319;28;20288;-79
2024/01/22 08:46:23;;;;;;;4.82;2.25;;;5.40;78.20;;;;;;4994773;28;20206;-79
2024/01/22 08:48:51;;;;;;;6.32;3.45;;;5.40;78.20;;;;;;4993084;28;20218;-78
2024/01/22 08:51:19;;;;;;;6.38;2.65;;;5.40;78.30;;;;;;4994429;28;20290;-79
2024/01/22 08:53:48;;;;;;;8.68;2.58;;;5.50;78.30;;;;;;5001641;28;20211;-79
2024/01/22 08:56:18;;;;;;;4.78;2.30;;;5.50;78.10;;;;;;4987928;28;20210;-79
2024/01/22 08:58:45;;;;;;;6.10;1.95;;;5.50;78.10;;;;;;4989156;28;20628;-79
2024/01/22 09:01:14;;;;;;;5.85;2.30;;;5.50;78.20;;;;;;4985685;28;20666;-78
2024/01/22 09:03:42;;;;;;;6.00;2.67;;;5.50;78.30;;;;;;4999318;28;20278;-79
2024/01/22 09:06:13;;;;;;;5.03;2.33;;;5.60;78.30;;;;;;4994903;28;20245;-79
2024/01/22 09:08:42;;;;;;;5.30;2.35;;;5.70;78.30;;;;;;5002789;28;20217;-79
2024/01/22 09:11:10;;;;;;;5.78;2.90;;;5.70;78.30;;;;;;4985870;28;20235;-79
2024/01/22 09:13:39;;;;;;;6.43;2.20;;;5.70;78.40;;;;;;4985029;28;20652;-79
2024/01/22 09:16:13;;;;;;;5.93;2.50;;;5.80;78.50;;;;;;4987833;28;20295;-79
2024/01/22 09:18:42;;;;;;;4.45;2.20;;;5.80;78.80;;;;;;4990003;28;20267;-79
2024/01/22 09:21:10;;;;;;;5.68;2.35;;;5.80;79.10;;;;;;4985185;28;20220;-79
2024/01/22 09:23:38;;;;;;;7.55;3.03;;;5.90;79.10;;;;;;4984751;28;20268;-79
2024/01/22 09:26:07;;;;;;;8.95;2.60;;;5.90;79.30;;;;;;4990255;28;20761;-79
2024/01/22 09:28:36;;;;;;;7.30;2.35;;;5.90;79.40;;;;;;4989092;28;20302;-79
2024/01/22 09:31:05;;;;;;;7.88;2.85;;;5.90;79.60;;;;;;4987832;28;20226;-78
2024/01/22 09:33:36;;;;;;;7.25;2.72;;;5.90;79.80;;;;;;4986889;28;20566;-79
2024/01/22 09:36:08;;;;;;;6.35;2.80;;;5.90;80.20;;;;;;5000051;28;20217;-79
2024/01/22 09:38:40;;;;;;;8.75;2.90;;;6.00;80.20;;;;;;4990793;28;20246;-79
2024/01/22 09:41:09;;;;;;;8.98;3.10;;;6.00;80.50;;;;;;5001907;28;20521;-79
2024/01/22 09:43:38;;;;;;;6.47;2.75;;;6.00;80.50;;;;;;4991275;28;20237;-79
2024/01/22 09:46:09;;;;;;;7.30;2.65;;;6.00;80.60;;;;;;4992104;28;20206;-79
2024/01/22 09:48:37;;;;;;;6.22;3.00;;;6.00;80.80;;;;;;5005499;28;20599;-79
2024/01/22 09:51:06;;;;;;;5.05;2.47;;;6.00;81.10;;;;;;4982160;28;20635;-79
2024/01/22 09:53:35;;;;;;;5.63;3.00;;;6.00;81.20;;;;;;4986789;28;20203;-77
2024/01/22 09:56:06;;;;;;;5.20;2.38;;;6.00;81.40;;;;;;4989650;28;20205;-79
2024/01/22 09:58:38;;;;;;;6.30;2.90;;;6.10;81.40;;;;;;4997919;28;20703;-79
2024/01/22 10:01:11;;;;;;;10.07;3.00;;;6.10;81.80;;;;;;5003559;28;20620;-79
2024/01/22 10:03:40;;;;;;;8.15;2.88;;;6.10;81.90;;;;;;4983849;28;20643;-79
2024/01/22 10:06:09;;;;;;;5.72;2.70;;;6.10;82.00;;;;;;4998346;28;20230;-79
2024/01/22 10:08:38;;;;;;;5.75;2.38;;;6.10;82.10;;;;;;4990152;28;20613;-79
2024/01/22 10:11:06;;;;;;;8.60;2.60;;;6.10;82.10;;;;;;4985187;28;20213;-79
2024/01/22 10:13:49;;;;;;;7.05;2.70;;;6.10;82.30;;;;;;4990591;28;20214;-79
2024/01/22 10:16:19;;;;;;;4.85;2.38;;;6.10;82.60;;;;;;4985985;28;20218;-79
2024/01/22 10:18:58;;;;;;;5.47;2.20;;;6.10;82.80;;;;;;4990804;28;20202;-79
2024/01/22 10:21:27;;;;;;;6.00;2.60;;;6.20;83.00;;;;;;4989062;28;20614;-79
2024/01/22 10:23:57;;;;;;;4.70;2.45;;;6.20;83.00;;;;;;4984940;28;20207;-79
2024/01/22 10:26:25;;;;;;;8.05;3.05;;;6.20;83.10;;;;;;4986240;28;21271;-79
2024/01/22 10:29:06;;;;;;;5.25;2.47;;;6.30;83.20;;;;;;4981654;28;20222;-79
2024/01/22 10:31:53;;;;;;;5.65;2.40;;;6.30;83.30;;;;;;4988342;28;20324;-79
2024/01/22 10:34:25;;;;;;;8.02;2.50;;;6.30;83.40;;;;;;4989232;28;20218;-79
2024/01/22 10:37:07;;;;;;;6.35;2.13;;;6.30;83.40;;;;;;4990359;28;20624;-79
2024/01/22 10:39:38;;;;;;;4.65;2.33;;;6.40;83.40;;;;;;4990284;28;20229;-79
2024/01/22 10:42:10;;;;;;;8.55;2.72;;;6.40;83.40;;;;;;5002987;28;20202;-78
2024/01/22 10:44:41;;;;;;;6.30;3.17;;;6.40;83.50;;;;;;4988070;28;20206;-79
2024/01/22 10:47:12;;;;;;;6.03;2.67;;;6.40;83.70;;;;;;4992811;28;20527;-79
2024/01/22 10:49:42;;;;;;;5.72;2.80;;;6.40;83.70;;;;;;4988426;28;20194;-79
2024/01/22 10:52:11;;;;;;;6.25;2.70;;;6.40;83.90;;;;;;4984203;28;20234;-79
2024/01/22 10:54:40;;;;;;;8.57;2.83;;;6.40;84.00;;;;;;4991513;28;20616;-79
2024/01/22 10:57:16;;;;;;;5.97;3.03;;;6.40;84.00;;;;;;4990412;28;20209;-79
2024/01/22 10:59:48;;;;;;;7.65;3.15;;;6.40;84.10;;;;;;4990436;28;20206;-79
2024/01/22 11:02:22;;;;;;;5.40;2.47;;;6.40;84.10;;;;;;4988104;28;20985;-79
2024/01/22 11:04:53;;;;;;;6.97;2.75;;;6.40;84.30;;;;;;4984634;28;20210;-79
2024/01/22 11:07:27;;;;;;;8.20;3.70;;;6.40;84.40;;;;;;4990375;28;20194;-79
2024/01/22 11:09:58;;;;;;;9.48;3.20;;;6.40;84.50;;;;;;4986404;28;20214;-79
2024/01/22 11:12:35;;;;;;;8.60;3.00;;;6.40;84.70;;;;;;4988596;28;20210;-79
2024/01/22 11:15:03;;;;;;;5.78;3.00;;;6.40;84.70;;;;;;4990696;28;20214;-79
2024/01/22 11:17:42;;;;;;;6.30;2.95;;;6.40;84.80;;;;;;4993705;28;20237;-79
2024/01/22 11:20:17;;;;;;;6.30;3.20;;;6.50;85.20;;;;;;5003138;28;20210;-79
2024/01/22 11:22:59;;;;;;;6.45;3.50;;;6.50;85.30;;;;;;4990063;28;20289;-79
2024/01/22 11:25:29;;;;;;;8.30;3.03;;;6.50;85.50;;;;;;4986943;28;20222;-79
2024/01/22 11:28:02;;;;;;;7.00;3.50;;;6.50;85.60;;;;;;4990040;28;20195;-79
2024/01/22 11:30:34;;;;;;;9.27;3.20;;;6.60;85.80;;;;;;4994902;28;20287;-79
2024/01/22 11:33:24;;;;;;;6.15;2.97;;;6.60;85.80;;;;;;4990651;28;20230;-79
2024/01/22 11:35:52;;;;;;;5.90;2.70;;;6.60;85.70;;;;;;4988362;28;20206;-79
2024/01/22 11:38:50;;;;;;;5.88;3.00;;;6.60;85.70;;;;;;4996853;28;20199;-79
2024/01/22 11:41:30;;;;;;;6.97;3.33;;;6.60;85.80;;;;;;4996377;28;20209;-79
2024/01/22 11:43:58;;;;;;;6.83;3.23;;;6.60;85.80;;;;;;4991728;28;20198;-79
2024/01/22 11:46:26;;;;;;;6.35;3.10;;;6.60;85.70;;;;;;4995812;28;20465;-79
2024/01/22 11:48:56;;;;;;;6.15;3.05;;;6.60;85.90;;;;;;4999173;28;20549;-79
2024/01/22 11:51:26;;;;;;;6.82;3.30;;;6.70;86.00;;;;;;4994001;28;20629;-79
2024/01/22 11:53:57;;;;;;;6.03;3.33;;;6.70;86.00;;;;;;4993541;28;20288;-79
2024/01/22 11:56:27;;;;;;;9.15;3.20;;;6.70;86.00;;;;;;5007677;28;20465;-80
2024/01/22 11:59:01;;;;;;;7.47;3.97;;;6.70;86.20;;;;;;4990797;28;20203;-79
2024/01/22 12:01:30;;;;;;;5.68;3.50;;;6.70;86.40;;;;;;5010580;28;20224;-77
2024/01/22 12:04:08;;;;;;;7.35;3.70;;;6.70;86.30;;;;;;4991594;28;20694;-80
2024/01/22 12:06:48;;;;;;;6.00;3.45;;;6.70;86.40;;;;;;4996902;28;20708;-79
2024/01/22 12:09:17;;;;;;;7.97;3.80;;;6.70;86.40;;;;;;4996686;28;20205;-79
2024/01/22 12:11:51;;;;;;;6.53;3.80;;;6.70;86.50;;;;;;4990819;28;20632;-79
2024/01/22 12:14:20;;;;;;;8.50;4.43;;;6.70;86.80;;;;;;5003291;28;20218;-79
2024/01/22 12:16:48;;;;;;;7.63;4.23;;;6.80;86.70;;;;;;4991900;28;20265;-79
2024/01/22 12:19:18;;;;;;;9.00;6.30;;;6.80;86.70;;;;;;4994886;28;20483;-79
2024/01/22 12:21:46;;;;;;;7.05;4.57;;;6.80;86.70;;;;;;4992142;28;20557;-79
2024/01/22 12:24:15;;;;;;;8.10;4.50;;;6.80;86.70;;;;;;4991720;28;20234;-79
2024/01/22 12:26:44;;;;;;;7.03;4.22;;;6.90;86.80;;;;;;4992852;28;21003;-79
2024/01/22 12:29:20;;;;;;;10.30;4.55;;;6.90;86.90;;;;;;4996731;28;20539;-79
2024/01/22 12:31:49;;;;;;;10.95;4.72;;;6.90;87.00;;;;;;5002725;28;20241;-79
2024/01/22 12:34:19;;;;;;;8.93;4.63;;;6.90;87.00;;;;;;5011270;28;20249;-78
2024/01/22 12:36:47;;;;;;;6.87;4.40;;;6.90;87.20;;;;;;5008679;28;20526;-79
2024/01/22 12:39:20;;;;;;;7.40;4.53;;;7.00;87.40;;;;;;5010402;28;20473;-79
2024/01/22 12:41:49;;;;;;;8.70;4.80;;;7.10;87.60;;;;;;5003349;28;20221;-79
2024/01/22 12:44:17;;;;;;;7.20;3.90;;;7.10;87.60;;;;;;5010808;28;20210;-78
2024/01/22 12:46:46;;;;;;;6.90;4.20;;;7.10;87.60;;;;;;5005927;28;20650;-79
2024/01/22 12:49:15;;;;;;;6.00;3.97;;;7.20;87.60;;;;;;5008774;28;20213;-79
2024/01/22 12:51:45;;;;;;;11.50;4.57;;;7.20;87.70;;;;;;5007714;28;20465;-79
2024/01/22 12:54:16;;;;;;;5.80;3.30;;;7.20;87.80;;;;;;5008967;28;21076;-79
2024/01/22 12:56:45;;;;;;;6.50;4.00;;;7.30;87.80;;;;;;5007546;28;20534;-79
2024/01/22 12:59:13;;;;;;;6.23;3.73;;;7.30;87.90;;;;;;5008559;28;20237;-79
2024/01/22 13:01:43;;;;;;;7.13;3.97;;;7.30;87.90;;;;;;5005359;28;20490;-79
2024/01/22 13:04:11;;;;;;;6.73;3.10;;;7.40;88.00;;;;;;5011756;28;20792;-79
2024/01/22 13:06:44;;;;;;;5.67;2.97;;;7.40;88.20;;;;;;5008747;28;20464;-79